Skip Navigation Links
NOAA logo - Click to go to the NOAA homepage
NOAA's National Weather Service
Alaska Aviation Weather Unit
  NWS logo - Click to go to the NWS homepage
Left Navbar Graphic     03 AKDT = 11 GMT

   
NOAA is celebrating 200 years of science, service, and stewardship. Visit the NOAA 200th celebration Web site to learn more.
USA.gov is the U.S. Government's official Web portal to all Federal, state and local government Web resources and services.
Facebook
NWS on Facebook

AAWU Home :: Display TAF Add Bookmark
TAF CYFS 290538Z 2906/2918 13005KT P6SM OVC020 TEMPO 2906/2918 P6SM
     -SN BKN025
    RMK NXT FCST BY 291200Z=

METAR CYFS 290500Z 13004KT 070V160 15SM OVC019 M02/M06 A2992 RMK SC8 SLP148= METAR CYFS 290600Z 14004KT 15SM OVC020 M02/M06 A2992 RMK SC8 SLP149= METAR CYFS 290700Z 13005KT 090V160 15SM OVC024 M02/M05 A2992 RMK SC8 SLP147= METAR CYFS 290800Z 12004KT 15SM OVC028 M02/M05 A2992 RMK SC8 SLP146= METAR CYFS 290900Z 12006KT 090V150 15SM OVC029 M03/M05 A2991 RMK SC8 SLP143= METAR CYFS 291000Z 13004KT 080V160 15SM OVC030 M03/M05 A2991 RMK SC8 SLP144= METAR CYFS 291100Z 12004KT 070V140 15SM FEW012 BKN035 M03/M06 A2989 RMK SF2SC3 SLP138=
 Alaska TAF Map

NOAA's National Weather Service
Alaska Aviation Weather Unit
6930 Sand Lake Road
Anchorage, AK 99502-1845
Disclaimer
Credits
Glossary
Privacy Policy
About Us
Career Opportunities
Contact AAWU Internet Services Site last modified: April, 17th 2012